sensor_id;sensor_type;location;lat;lon;timestamp;P1;durP1;ratioP1;P2;durP2;ratioP2
37997;SDS011;24079;51.824;4.682;2022-12-18T01:15:51;118.65;;;39.88;;
37997;SDS011;24079;51.824;4.682;2022-12-18T07:09:19;43.15;;;19.02;;
37997;SDS011;24079;51.824;4.682;2022-12-18T07:11:47;36.40;;;17.15;;
37997;SDS011;24079;51.824;4.682;2022-12-18T07:14:25;44.17;;;18.20;;
37997;SDS011;24079;51.824;4.682;2022-12-18T07:16:56;35.92;;;17.67;;
37997;SDS011;24079;51.824;4.682;2022-12-18T07:19:22;38.35;;;18.20;;
37997;SDS011;24079;51.824;4.682;2022-12-18T07:21:51;38.10;;;18.38;;
37997;SDS011;24079;51.824;4.682;2022-12-18T07:29:38;40.00;;;17.95;;
37997;SDS011;24079;51.824;4.682;2022-12-18T07:32:04;43.30;;;19.13;;
37997;SDS011;24079;51.824;4.682;2022-12-18T07:34:30;41.83;;;18.33;;
37997;SDS011;24079;51.824;4.682;2022-12-18T07:37:47;43.38;;;18.70;;
37997;SDS011;24079;51.824;4.682;2022-12-18T07:40:24;43.13;;;18.38;;
37997;SDS011;24079;51.824;4.682;2022-12-18T07:42:49;36.20;;;17.48;;
37997;SDS011;24079;51.824;4.682;2022-12-18T07:45:15;33.22;;;17.98;;
37997;SDS011;24079;51.824;4.682;2022-12-18T07:47:41;38.50;;;18.35;;
37997;SDS011;24079;51.824;4.682;2022-12-18T07:50:09;41.90;;;18.95;;
37997;SDS011;24079;51.824;4.682;2022-12-18T07:52:59;37.05;;;16.20;;
37997;SDS011;24079;51.824;4.682;2022-12-18T07:58:04;39.25;;;18.67;;
37997;SDS011;24079;51.824;4.682;2022-12-18T08:00:30;39.08;;;17.02;;
37997;SDS011;24079;51.824;4.682;2022-12-18T08:02:56;37.92;;;17.90;;
37997;SDS011;24079;51.824;4.682;2022-12-18T08:05:22;41.50;;;17.65;;
37997;SDS011;24079;51.824;4.682;2022-12-18T08:08:06;38.47;;;17.05;;
37997;SDS011;24079;51.824;4.682;2022-12-18T08:13:27;34.08;;;17.15;;
37997;SDS011;24079;51.824;4.682;2022-12-18T08:41:43;34.78;;;16.92;;
37997;SDS011;24079;51.824;4.682;2022-12-18T08:49:39;40.67;;;20.15;;
37997;SDS011;24079;51.824;4.682;2022-12-18T08:52:14;36.05;;;17.27;;
37997;SDS011;24079;51.824;4.682;2022-12-18T08:54:41;36.88;;;17.38;;
37997;SDS011;24079;51.824;4.682;2022-12-18T08:57:07;37.95;;;17.33;;
37997;SDS011;24079;51.824;4.682;2022-12-18T09:02:17;36.00;;;17.00;;
37997;SDS011;24079;51.824;4.682;2022-12-18T09:04:49;34.88;;;15.45;;
37997;SDS011;24079;51.824;4.682;2022-12-18T09:09:50;33.80;;;17.00;;
37997;SDS011;24079;51.824;4.682;2022-12-18T09:12:16;36.03;;;16.38;;
37997;SDS011;24079;51.824;4.682;2022-12-18T09:14:41;37.97;;;17.05;;
37997;SDS011;24079;51.824;4.682;2022-12-18T09:17:07;34.20;;;16.40;;
37997;SDS011;24079;51.824;4.682;2022-12-18T09:36:17;33.92;;;16.70;;
37997;SDS011;24079;51.824;4.682;2022-12-18T09:38:44;32.58;;;16.15;;
37997;SDS011;24079;51.824;4.682;2022-12-18T09:43:56;33.63;;;16.13;;
37997;SDS011;24079;51.824;4.682;2022-12-18T09:46:36;32.47;;;16.80;;
37997;SDS011;24079;51.824;4.682;2022-12-18T09:49:20;32.42;;;15.82;;
37997;SDS011;24079;51.824;4.682;2022-12-18T09:52:00;27.17;;;13.80;;
37997;SDS011;24079;51.824;4.682;2022-12-18T09:57:24;37.85;;;17.00;;
37997;SDS011;24079;51.824;4.682;2022-12-18T09:59:58;32.67;;;15.30;;
37997;SDS011;24079;51.824;4.682;2022-12-18T10:02:29;31.33;;;15.82;;
37997;SDS011;24079;51.824;4.682;2022-12-18T10:05:07;33.92;;;15.90;;
37997;SDS011;24079;51.824;4.682;2022-12-18T10:10:31;34.20;;;17.17;;
37997;SDS011;24079;51.824;4.682;2022-12-18T10:16:14;30.05;;;15.80;;
37997;SDS011;24079;51.824;4.682;2022-12-18T10:27:17;34.80;;;17.73;;
37997;SDS011;24079;51.824;4.682;2022-12-18T10:30:07;34.47;;;16.08;;
37997;SDS011;24079;51.824;4.682;2022-12-18T11:19:21;32.53;;;15.93;;
37997;SDS011;24079;51.824;4.682;2022-12-18T11:21:50;31.67;;;14.80;;
37997;SDS011;24079;51.824;4.682;2022-12-18T11:24:24;29.93;;;15.13;;
37997;SDS011;24079;51.824;4.682;2022-12-18T11:26:54;34.25;;;15.70;;
37997;SDS011;24079;51.824;4.682;2022-12-18T11:29:37;33.78;;;16.88;;
37997;SDS011;24079;51.824;4.682;2022-12-18T11:34:39;28.80;;;14.73;;
37997;SDS011;24079;51.824;4.682;2022-12-18T11:37:10;30.67;;;15.60;;
37997;SDS011;24079;51.824;4.682;2022-12-18T11:39:41;32.97;;;15.88;;
37997;SDS011;24079;51.824;4.682;2022-12-18T11:42:32;35.28;;;17.35;;
37997;SDS011;24079;51.824;4.682;2022-12-18T11:52:59;30.75;;;17.10;;
37997;SDS011;24079;51.824;4.682;2022-12-18T11:58:47;33.53;;;16.52;;
37997;SDS011;24079;51.824;4.682;2022-12-18T12:01:34;37.03;;;18.58;;
37997;SDS011;24079;51.824;4.682;2022-12-18T12:07:27;34.78;;;17.70;;
37997;SDS011;24079;51.824;4.682;2022-12-18T12:15:45;34.08;;;18.75;;
37997;SDS011;24079;51.824;4.682;2022-12-18T12:21:20;36.28;;;18.23;;
37997;SDS011;24079;51.824;4.682;2022-12-18T12:30:11;36.42;;;18.23;;
37997;SDS011;24079;51.824;4.682;2022-12-18T12:35:52;30.60;;;16.52;;
37997;SDS011;24079;51.824;4.682;2022-12-18T12:38:43;35.55;;;18.15;;
37997;SDS011;24079;51.824;4.682;2022-12-18T12:49:04;36.42;;;17.80;;
37997;SDS011;24079;51.824;4.682;2022-12-18T12:51:44;33.78;;;17.35;;
37997;SDS011;24079;51.824;4.682;2022-12-18T12:54:17;36.75;;;18.33;;
37997;SDS011;24079;51.824;4.682;2022-12-18T12:57:04;33.65;;;17.30;;
37997;SDS011;24079;51.824;4.682;2022-12-18T13:08:24;39.17;;;19.88;;
37997;SDS011;24079;51.824;4.682;2022-12-18T13:11:00;40.90;;;20.38;;
37997;SDS011;24079;51.824;4.682;2022-12-18T13:13:48;50.25;;;22.83;;
37997;SDS011;24079;51.824;4.682;2022-12-18T13:16:16;42.50;;;20.63;;
37997;SDS011;24079;51.824;4.682;2022-12-18T13:19:00;43.28;;;20.52;;
37997;SDS011;24079;51.824;4.682;2022-12-18T13:21:30;38.35;;;18.98;;
37997;SDS011;24079;51.824;4.682;2022-12-18T13:24:32;38.65;;;19.77;;
37997;SDS011;24079;51.824;4.682;2022-12-18T13:27:24;49.70;;;23.63;;
37997;SDS011;24079;51.824;4.682;2022-12-18T13:54:00;35.17;;;19.10;;
37997;SDS011;24079;51.824;4.682;2022-12-18T14:07:07;34.90;;;17.98;;
37997;SDS011;24079;51.824;4.682;2022-12-18T14:09:42;42.97;;;20.23;;
37997;SDS011;24079;51.824;4.682;2022-12-18T14:12:17;34.55;;;19.17;;
37997;SDS011;24079;51.824;4.682;2022-12-18T14:17:42;37.05;;;18.13;;
37997;SDS011;24079;51.824;4.682;2022-12-18T14:20:13;41.00;;;20.25;;
37997;SDS011;24079;51.824;4.682;2022-12-18T14:22:42;39.75;;;19.90;;
37997;SDS011;24079;51.824;4.682;2022-12-18T14:30:55;35.33;;;18.15;;
37997;SDS011;24079;51.824;4.682;2022-12-18T14:48:55;36.70;;;19.00;;
37997;SDS011;24079;51.824;4.682;2022-12-18T14:51:29;37.33;;;20.60;;
37997;SDS011;24079;51.824;4.682;2022-12-18T14:54:04;34.42;;;19.38;;
37997;SDS011;24079;51.824;4.682;2022-12-18T14:56:43;36.42;;;19.67;;
37997;SDS011;24079;51.824;4.682;2022-12-18T14:59:15;33.30;;;19.55;;
37997;SDS011;24079;51.824;4.682;2022-12-18T15:04:35;35.95;;;19.17;;
37997;SDS011;24079;51.824;4.682;2022-12-18T15:07:20;37.92;;;19.67;;
37997;SDS011;24079;51.824;4.682;2022-12-18T15:18:15;34.17;;;18.98;;
37997;SDS011;24079;51.824;4.682;2022-12-18T15:20:43;37.25;;;20.33;;
37997;SDS011;24079;51.824;4.682;2022-12-18T15:23:23;39.20;;;19.67;;
37997;SDS011;24079;51.824;4.682;2022-12-18T15:25:56;34.63;;;18.20;;
37997;SDS011;24079;51.824;4.682;2022-12-18T15:31:00;34.13;;;17.92;;
37997;SDS011;24079;51.824;4.682;2022-12-18T15:33:34;34.10;;;16.98;;
37997;SDS011;24079;51.824;4.682;2022-12-18T15:36:02;31.60;;;16.83;;
37997;SDS011;24079;51.824;4.682;2022-12-18T15:38:30;32.88;;;17.50;;
37997;SDS011;24079;51.824;4.682;2022-12-18T15:40:56;32.67;;;17.15;;
37997;SDS011;24079;51.824;4.682;2022-12-18T15:43:23;33.40;;;17.88;;
37997;SDS011;24079;51.824;4.682;2022-12-18T15:46:05;34.10;;;17.55;;
37997;SDS011;24079;51.824;4.682;2022-12-18T15:48:39;37.55;;;19.00;;
37997;SDS011;24079;51.824;4.682;2022-12-18T15:51:19;37.67;;;19.45;;
37997;SDS011;24079;51.824;4.682;2022-12-18T15:53:58;33.30;;;17.70;;
37997;SDS011;24079;51.824;4.682;2022-12-18T15:56:25;33.35;;;17.63;;
37997;SDS011;24079;51.824;4.682;2022-12-18T15:59:11;33.60;;;18.40;;
37997;SDS011;24079;51.824;4.682;2022-12-18T16:01:44;32.95;;;18.27;;
37997;SDS011;24079;51.824;4.682;2022-12-18T16:04:13;32.33;;;17.00;;
37997;SDS011;24079;51.824;4.682;2022-12-18T16:06:40;32.80;;;17.80;;
37997;SDS011;24079;51.824;4.682;2022-12-18T16:09:08;33.30;;;18.17;;
37997;SDS011;24079;51.824;4.682;2022-12-18T16:11:36;37.47;;;18.77;;
37997;SDS011;24079;51.824;4.682;2022-12-18T16:14:17;37.15;;;18.73;;
37997;SDS011;24079;51.824;4.682;2022-12-18T16:16:55;32.00;;;18.17;;
37997;SDS011;24079;51.824;4.682;2022-12-18T16:19:25;33.88;;;18.05;;
37997;SDS011;24079;51.824;4.682;2022-12-18T16:21:51;31.52;;;18.27;;
37997;SDS011;24079;51.824;4.682;2022-12-18T16:24:20;32.17;;;17.65;;
37997;SDS011;24079;51.824;4.682;2022-12-18T16:26:50;35.65;;;19.58;;
37997;SDS011;24079;51.824;4.682;2022-12-18T16:29:17;32.65;;;17.30;;
37997;SDS011;24079;51.824;4.682;2022-12-18T16:31:44;37.15;;;17.98;;
37997;SDS011;24079;51.824;4.682;2022-12-18T16:34:10;32.85;;;18.30;;
37997;SDS011;24079;51.824;4.682;2022-12-18T16:36:49;34.88;;;18.20;;
37997;SDS011;24079;51.824;4.682;2022-12-18T16:39:15;31.15;;;17.27;;
37997;SDS011;24079;51.824;4.682;2022-12-18T16:41:41;41.08;;;19.35;;
37997;SDS011;24079;51.824;4.682;2022-12-18T16:44:07;34.95;;;18.58;;
37997;SDS011;24079;51.824;4.682;2022-12-18T16:46:33;34.60;;;18.73;;
37997;SDS011;24079;51.824;4.682;2022-12-18T16:48:59;37.65;;;18.23;;
37997;SDS011;24079;51.824;4.682;2022-12-18T16:51:26;36.72;;;17.85;;
37997;SDS011;24079;51.824;4.682;2022-12-18T16:53:55;32.80;;;18.27;;
37997;SDS011;24079;51.824;4.682;2022-12-18T16:56:22;37.45;;;19.30;;
37997;SDS011;24079;51.824;4.682;2022-12-18T16:58:52;36.35;;;18.33;;
37997;SDS011;24079;51.824;4.682;2022-12-18T17:01:20;33.42;;;18.65;;
37997;SDS011;24079;51.824;4.682;2022-12-18T17:03:56;36.50;;;20.25;;
37997;SDS011;24079;51.824;4.682;2022-12-18T17:06:27;34.97;;;18.85;;
37997;SDS011;24079;51.824;4.682;2022-12-18T17:08:55;37.28;;;20.05;;
37997;SDS011;24079;51.824;4.682;2022-12-18T17:11:25;36.03;;;19.25;;
37997;SDS011;24079;51.824;4.682;2022-12-18T17:13:52;36.03;;;18.88;;
37997;SDS011;24079;51.824;4.682;2022-12-18T17:16:22;35.58;;;20.13;;
37997;SDS011;24079;51.824;4.682;2022-12-18T17:18:49;35.25;;;19.98;;
37997;SDS011;24079;51.824;4.682;2022-12-18T17:21:16;40.78;;;19.65;;
37997;SDS011;24079;51.824;4.682;2022-12-18T17:23:42;37.60;;;20.33;;
37997;SDS011;24079;51.824;4.682;2022-12-18T17:26:08;43.47;;;22.92;;
37997;SDS011;24079;51.824;4.682;2022-12-18T17:28:35;37.03;;;21.25;;
37997;SDS011;24079;51.824;4.682;2022-12-18T17:31:09;41.78;;;20.42;;
37997;SDS011;24079;51.824;4.682;2022-12-18T17:33:43;49.70;;;21.95;;
37997;SDS011;24079;51.824;4.682;2022-12-18T17:36:12;35.58;;;19.83;;
37997;SDS011;24079;51.824;4.682;2022-12-18T17:38:42;37.30;;;20.58;;
37997;SDS011;24079;51.824;4.682;2022-12-18T17:41:14;48.35;;;22.08;;
37997;SDS011;24079;51.824;4.682;2022-12-18T17:43:39;41.53;;;22.70;;
37997;SDS011;24079;51.824;4.682;2022-12-18T17:46:10;40.58;;;21.42;;
37997;SDS011;24079;51.824;4.682;2022-12-18T17:48:37;37.15;;;20.40;;
37997;SDS011;24079;51.824;4.682;2022-12-18T17:51:04;39.35;;;21.70;;
37997;SDS011;24079;51.824;4.682;2022-12-18T17:53:31;40.75;;;22.45;;
37997;SDS011;24079;51.824;4.682;2022-12-18T17:55:57;38.70;;;21.30;;
37997;SDS011;24079;51.824;4.682;2022-12-18T17:58:29;42.60;;;21.88;;
37997;SDS011;24079;51.824;4.682;2022-12-18T18:00:56;41.47;;;23.63;;
37997;SDS011;24079;51.824;4.682;2022-12-18T18:03:21;39.40;;;22.02;;
37997;SDS011;24079;51.824;4.682;2022-12-18T18:05:47;42.15;;;22.08;;
37997;SDS011;24079;51.824;4.682;2022-12-18T18:08:13;39.05;;;22.33;;
37997;SDS011;24079;51.824;4.682;2022-12-18T18:10:39;42.63;;;23.50;;
37997;SDS011;24079;51.824;4.682;2022-12-18T18:13:08;41.00;;;22.73;;
37997;SDS011;24079;51.824;4.682;2022-12-18T18:16:02;43.55;;;23.63;;
37997;SDS011;24079;51.824;4.682;2022-12-18T18:18:30;44.72;;;23.77;;
37997;SDS011;24079;51.824;4.682;2022-12-18T18:20:56;43.10;;;22.48;;
37997;SDS011;24079;51.824;4.682;2022-12-18T18:23:22;45.05;;;23.33;;
37997;SDS011;24079;51.824;4.682;2022-12-18T18:25:55;43.10;;;22.45;;
37997;SDS011;24079;51.824;4.682;2022-12-18T18:28:30;42.80;;;23.50;;
37997;SDS011;24079;51.824;4.682;2022-12-18T18:30:57;50.00;;;25.33;;
37997;SDS011;24079;51.824;4.682;2022-12-18T18:33:23;45.13;;;23.83;;
37997;SDS011;24079;51.824;4.682;2022-12-18T18:35:51;45.47;;;24.33;;
37997;SDS011;24079;51.824;4.682;2022-12-18T18:38:17;46.72;;;24.52;;
37997;SDS011;24079;51.824;4.682;2022-12-18T18:40:42;50.72;;;26.95;;
37997;SDS011;24079;51.824;4.682;2022-12-18T18:43:08;71.15;;;37.13;;
37997;SDS011;24079;51.824;4.682;2022-12-18T18:45:49;54.92;;;30.13;;
37997;SDS011;24079;51.824;4.682;2022-12-18T18:48:27;50.25;;;25.65;;
37997;SDS011;24079;51.824;4.682;2022-12-18T18:53:55;48.88;;;25.95;;
37997;SDS011;24079;51.824;4.682;2022-12-18T18:56:21;44.28;;;24.33;;
37997;SDS011;24079;51.824;4.682;2022-12-18T18:58:48;45.80;;;25.33;;
37997;SDS011;24079;51.824;4.682;2022-12-18T19:01:16;50.28;;;25.63;;
37997;SDS011;24079;51.824;4.682;2022-12-18T19:03:43;46.10;;;25.10;;
37997;SDS011;24079;51.824;4.682;2022-12-18T19:06:10;50.05;;;27.15;;
37997;SDS011;24079;51.824;4.682;2022-12-18T19:08:48;52.35;;;28.77;;
37997;SDS011;24079;51.824;4.682;2022-12-18T19:11:18;47.72;;;26.08;;
37997;SDS011;24079;51.824;4.682;2022-12-18T19:14:08;46.63;;;26.52;;
37997;SDS011;24079;51.824;4.682;2022-12-18T19:16:35;49.08;;;25.55;;
37997;SDS011;24079;51.824;4.682;2022-12-18T19:19:01;50.78;;;28.08;;
37997;SDS011;24079;51.824;4.682;2022-12-18T19:21:32;45.95;;;25.08;;
37997;SDS011;24079;51.824;4.682;2022-12-18T19:23:59;48.10;;;26.55;;
37997;SDS011;24079;51.824;4.682;2022-12-18T19:26:25;51.38;;;26.13;;
37997;SDS011;24079;51.824;4.682;2022-12-18T19:28:52;55.35;;;28.67;;
37997;SDS011;24079;51.824;4.682;2022-12-18T19:31:20;50.70;;;26.48;;
37997;SDS011;24079;51.824;4.682;2022-12-18T19:33:47;44.45;;;24.38;;
37997;SDS011;24079;51.824;4.682;2022-12-18T19:36:23;54.03;;;28.83;;
37997;SDS011;24079;51.824;4.682;2022-12-18T19:38:51;47.20;;;26.05;;
37997;SDS011;24079;51.824;4.682;2022-12-18T19:41:19;54.85;;;27.85;;
37997;SDS011;24079;51.824;4.682;2022-12-18T19:43:46;70.80;;;28.95;;
37997;SDS011;24079;51.824;4.682;2022-12-18T19:46:13;67.03;;;28.67;;
37997;SDS011;24079;51.824;4.682;2022-12-18T19:48:40;61.00;;;34.42;;
37997;SDS011;24079;51.824;4.682;2022-12-18T19:51:28;60.67;;;35.83;;
37997;SDS011;24079;51.824;4.682;2022-12-18T19:53:55;52.22;;;28.13;;
37997;SDS011;24079;51.824;4.682;2022-12-18T19:56:22;53.42;;;28.02;;
37997;SDS011;24079;51.824;4.682;2022-12-18T19:58:53;65.57;;;30.47;;
37997;SDS011;24079;51.824;4.682;2022-12-18T20:01:19;53.80;;;28.42;;
37997;SDS011;24079;51.824;4.682;2022-12-18T20:03:48;54.42;;;27.08;;
37997;SDS011;24079;51.824;4.682;2022-12-18T20:06:18;56.15;;;28.67;;
37997;SDS011;24079;51.824;4.682;2022-12-18T20:08:48;54.30;;;28.75;;
37997;SDS011;24079;51.824;4.682;2022-12-18T20:11:14;51.50;;;26.60;;
37997;SDS011;24079;51.824;4.682;2022-12-18T20:13:40;57.50;;;29.80;;
37997;SDS011;24079;51.824;4.682;2022-12-18T20:16:06;53.90;;;28.17;;
37997;SDS011;24079;51.824;4.682;2022-12-18T20:18:32;51.92;;;27.92;;
37997;SDS011;24079;51.824;4.682;2022-12-18T20:20:57;57.97;;;29.52;;
37997;SDS011;24079;51.824;4.682;2022-12-18T20:23:23;66.40;;;30.60;;
37997;SDS011;24079;51.824;4.682;2022-12-18T20:25:50;60.72;;;31.10;;
37997;SDS011;24079;51.824;4.682;2022-12-18T20:28:17;55.80;;;30.27;;
37997;SDS011;24079;51.824;4.682;2022-12-18T20:30:43;58.55;;;30.48;;
37997;SDS011;24079;51.824;4.682;2022-12-18T20:33:09;65.35;;;32.08;;
37997;SDS011;24079;51.824;4.682;2022-12-18T20:35:35;57.65;;;29.10;;
37997;SDS011;24079;51.824;4.682;2022-12-18T20:38:01;55.38;;;29.50;;
37997;SDS011;24079;51.824;4.682;2022-12-18T20:40:26;59.97;;;29.63;;
37997;SDS011;24079;51.824;4.682;2022-12-18T20:42:52;58.78;;;30.15;;
37997;SDS011;24079;51.824;4.682;2022-12-18T20:45:18;57.60;;;30.33;;
37997;SDS011;24079;51.824;4.682;2022-12-18T20:47:43;63.22;;;31.40;;
37997;SDS011;24079;51.824;4.682;2022-12-18T20:50:09;61.10;;;31.67;;
37997;SDS011;24079;51.824;4.682;2022-12-18T20:52:35;62.97;;;33.00;;
37997;SDS011;24079;51.824;4.682;2022-12-18T20:55:01;60.53;;;32.22;;
37997;SDS011;24079;51.824;4.682;2022-12-18T20:57:29;96.57;;;42.17;;
37997;SDS011;24079;51.824;4.682;2022-12-18T20:59:54;86.80;;;39.05;;
37997;SDS011;24079;51.824;4.682;2022-12-18T21:02:20;74.53;;;35.05;;
37997;SDS011;24079;51.824;4.682;2022-12-18T21:04:46;80.55;;;37.03;;
37997;SDS011;24079;51.824;4.682;2022-12-18T21:07:11;75.03;;;35.17;;
37997;SDS011;24079;51.824;4.682;2022-12-18T21:09:37;71.20;;;33.67;;
37997;SDS011;24079;51.824;4.682;2022-12-18T21:12:03;67.13;;;33.60;;
37997;SDS011;24079;51.824;4.682;2022-12-18T21:14:48;59.03;;;31.95;;
37997;SDS011;24079;51.824;4.682;2022-12-18T21:17:13;67.05;;;33.50;;
37997;SDS011;24079;51.824;4.682;2022-12-18T21:19:39;65.72;;;35.83;;
37997;SDS011;24079;51.824;4.682;2022-12-18T21:22:05;69.70;;;36.70;;
37997;SDS011;24079;51.824;4.682;2022-12-18T21:24:31;63.35;;;32.20;;
37997;SDS011;24079;51.824;4.682;2022-12-18T21:26:59;66.20;;;31.92;;
37997;SDS011;24079;51.824;4.682;2022-12-18T21:29:25;69.72;;;36.75;;
37997;SDS011;24079;51.824;4.682;2022-12-18T21:31:52;77.07;;;42.30;;
37997;SDS011;24079;51.824;4.682;2022-12-18T21:34:19;69.45;;;37.35;;
37997;SDS011;24079;51.824;4.682;2022-12-18T21:36:45;61.70;;;31.85;;
37997;SDS011;24079;51.824;4.682;2022-12-18T21:39:11;62.85;;;32.13;;
37997;SDS011;24079;51.824;4.682;2022-12-18T21:41:37;58.92;;;30.77;;
37997;SDS011;24079;51.824;4.682;2022-12-18T21:44:24;64.63;;;32.38;;
37997;SDS011;24079;51.824;4.682;2022-12-18T21:46:50;65.85;;;32.03;;
37997;SDS011;24079;51.824;4.682;2022-12-18T21:49:16;63.70;;;30.95;;
37997;SDS011;24079;51.824;4.682;2022-12-18T21:51:45;63.45;;;31.65;;
37997;SDS011;24079;51.824;4.682;2022-12-18T21:54:16;59.50;;;30.33;;
37997;SDS011;24079;51.824;4.682;2022-12-18T21:59:12;63.22;;;30.85;;
37997;SDS011;24079;51.824;4.682;2022-12-18T22:01:38;64.07;;;31.02;;
37997;SDS011;24079;51.824;4.682;2022-12-18T22:04:06;64.43;;;31.83;;
37997;SDS011;24079;51.824;4.682;2022-12-18T22:06:35;64.55;;;31.50;;
37997;SDS011;24079;51.824;4.682;2022-12-18T22:09:02;61.47;;;31.83;;
37997;SDS011;24079;51.824;4.682;2022-12-18T22:11:28;65.25;;;32.55;;
37997;SDS011;24079;51.824;4.682;2022-12-18T22:13:54;60.20;;;30.40;;
37997;SDS011;24079;51.824;4.682;2022-12-18T22:16:20;62.05;;;30.88;;
37997;SDS011;24079;51.824;4.682;2022-12-18T22:18:45;61.22;;;30.23;;
37997;SDS011;24079;51.824;4.682;2022-12-18T22:21:33;65.75;;;31.33;;
37997;SDS011;24079;51.824;4.682;2022-12-18T22:23:59;66.97;;;30.90;;
37997;SDS011;24079;51.824;4.682;2022-12-18T22:26:27;64.38;;;30.98;;
37997;SDS011;24079;51.824;4.682;2022-12-18T22:28:53;64.32;;;30.85;;
37997;SDS011;24079;51.824;4.682;2022-12-18T22:31:38;63.58;;;30.90;;
37997;SDS011;24079;51.824;4.682;2022-12-18T22:34:04;67.22;;;32.38;;
37997;SDS011;24079;51.824;4.682;2022-12-18T22:36:34;70.38;;;30.60;;
37997;SDS011;24079;51.824;4.682;2022-12-18T22:39:06;61.00;;;30.90;;
37997;SDS011;24079;51.824;4.682;2022-12-18T22:41:35;63.75;;;31.10;;
37997;SDS011;24079;51.824;4.682;2022-12-18T22:44:01;65.80;;;31.25;;
37997;SDS011;24079;51.824;4.682;2022-12-18T22:46:28;64.60;;;29.25;;
37997;SDS011;24079;51.824;4.682;2022-12-18T22:48:57;62.28;;;29.27;;
37997;SDS011;24079;51.824;4.682;2022-12-18T22:51:23;65.07;;;31.20;;
37997;SDS011;24079;51.824;4.682;2022-12-18T22:53:48;58.50;;;30.73;;
37997;SDS011;24079;51.824;4.682;2022-12-18T22:56:14;65.93;;;31.83;;
37997;SDS011;24079;51.824;4.682;2022-12-18T22:58:40;62.25;;;29.90;;
37997;SDS011;24079;51.824;4.682;2022-12-18T23:01:13;66.35;;;31.48;;
37997;SDS011;24079;51.824;4.682;2022-12-18T23:03:43;64.05;;;30.98;;
37997;SDS011;24079;51.824;4.682;2022-12-18T23:06:08;62.90;;;31.15;;
37997;SDS011;24079;51.824;4.682;2022-12-18T23:08:34;63.10;;;30.70;;
37997;SDS011;24079;51.824;4.682;2022-12-18T23:11:00;71.30;;;30.80;;
37997;SDS011;24079;51.824;4.682;2022-12-18T23:13:27;61.42;;;30.25;;
37997;SDS011;24079;51.824;4.682;2022-12-18T23:15:53;60.75;;;30.27;;
37997;SDS011;24079;51.824;4.682;2022-12-18T23:18:19;66.38;;;31.90;;
37997;SDS011;24079;51.824;4.682;2022-12-18T23:20:46;64.63;;;32.13;;
37997;SDS011;24079;51.824;4.682;2022-12-18T23:23:12;63.33;;;31.70;;
37997;SDS011;24079;51.824;4.682;2022-12-18T23:25:37;69.40;;;32.53;;
37997;SDS011;24079;51.824;4.682;2022-12-18T23:28:03;69.03;;;33.53;;
37997;SDS011;24079;51.824;4.682;2022-12-18T23:30:29;62.53;;;31.02;;
37997;SDS011;24079;51.824;4.682;2022-12-18T23:32:56;67.90;;;31.80;;
37997;SDS011;24079;51.824;4.682;2022-12-18T23:35:21;62.38;;;31.85;;
37997;SDS011;24079;51.824;4.682;2022-12-18T23:37:47;62.70;;;31.42;;
37997;SDS011;24079;51.824;4.682;2022-12-18T23:40:13;70.45;;;31.77;;
37997;SDS011;24079;51.824;4.682;2022-12-18T23:42:39;66.80;;;32.25;;
37997;SDS011;24079;51.824;4.682;2022-12-18T23:45:04;67.45;;;30.45;;
37997;SDS011;24079;51.824;4.682;2022-12-18T23:47:31;67.13;;;31.77;;
37997;SDS011;24079;51.824;4.682;2022-12-18T23:49:56;67.35;;;32.63;;
37997;SDS011;24079;51.824;4.682;2022-12-18T23:52:22;66.70;;;32.70;;
37997;SDS011;24079;51.824;4.682;2022-12-18T23:54:48;68.85;;;32.90;;
37997;SDS011;24079;51.824;4.682;2022-12-18T23:57:13;63.17;;;31.75;;
37997;SDS011;24079;51.824;4.682;2022-12-18T23:59:39;67.32;;;30.88;;
